createdAt,value
2022-11-18T00:00:47.603Z,53.33
2022-11-18T00:01:47.637Z,54.46
2022-11-18T00:02:47.610Z,55.59
2022-11-18T00:03:47.582Z,55.75
2022-11-18T00:04:47.578Z,55.75
2022-11-18T00:05:47.563Z,56.07
2022-11-18T00:06:47.555Z,55.75
2022-11-18T00:07:47.569Z,55.59
2022-11-18T00:08:47.568Z,55.59
2022-11-18T00:09:47.530Z,55.43
2022-11-18T00:10:47.524Z,54.95
2022-11-18T00:11:47.517Z,55.11
2022-11-18T00:12:47.538Z,55.11
2022-11-18T00:13:47.504Z,54.79
2022-11-18T00:14:47.503Z,46.89
2022-11-18T00:15:47.491Z,38.19
2022-11-18T00:16:49.055Z,38.03
2022-11-18T00:17:47.474Z,39.48
2022-11-18T00:18:47.491Z,45.28
2022-11-18T00:19:47.580Z,39.32
2022-11-18T00:21:23.683Z,39.16
2022-11-18T00:21:47.514Z,39.96
2022-11-18T00:22:47.462Z,42.54
2022-11-18T00:23:47.533Z,41.41
2022-11-18T00:24:47.476Z,48.34
2022-11-18T00:25:47.508Z,41.73
2022-11-18T00:26:47.461Z,43.99
2022-11-18T00:27:47.510Z,41.73
2022-11-18T00:28:47.454Z,41.89
2022-11-18T00:29:47.408Z,41.57
2022-11-18T00:30:47.381Z,40.12
2022-11-18T00:31:47.390Z,40.28
2022-11-18T00:32:47.375Z,42.86
2022-11-18T00:33:47.475Z,42.06
2022-11-18T00:34:47.348Z,40.93
2022-11-18T00:35:47.370Z,41.41
2022-11-18T00:36:47.351Z,41.25
2022-11-18T00:37:47.336Z,44.15
2022-11-18T00:38:47.379Z,42.06
2022-11-18T00:39:47.329Z,40.77
2022-11-18T00:40:47.325Z,40.28
2022-11-18T00:41:47.315Z,41.57
2022-11-18T00:42:47.334Z,40.61
2022-11-18T00:43:47.333Z,39.96
2022-11-18T00:44:47.290Z,39.64
2022-11-18T00:45:47.282Z,41.57
2022-11-18T00:46:47.276Z,43.67
2022-11-18T00:47:47.273Z,39.64
2022-11-18T00:48:47.281Z,39.80
2022-11-18T00:49:47.272Z,41.73
2022-11-18T00:50:47.252Z,42.38
2022-11-18T00:51:47.220Z,42.70
2022-11-18T00:52:47.232Z,41.25
2022-11-18T00:53:47.242Z,42.22
2022-11-18T00:54:47.200Z,41.89
2022-11-18T00:55:47.199Z,39.96
2022-11-18T00:56:47.176Z,39.96
2022-11-18T00:57:47.199Z,41.57
2022-11-18T00:58:47.193Z,39.16
2022-11-18T00:59:47.148Z,43.67
2022-11-18T01:00:47.189Z,41.25
2022-11-18T01:01:47.204Z,41.73
2022-11-18T01:02:47.163Z,39.48
2022-11-18T01:03:47.171Z,40.12
2022-11-18T01:04:47.105Z,39.80
2022-11-18T01:05:47.107Z,40.93
2022-11-18T01:06:47.094Z,41.25
2022-11-18T01:07:47.087Z,40.44
2022-11-18T01:08:47.113Z,45.12
2022-11-18T01:09:47.073Z,54.62
2022-11-18T01:10:47.057Z,40.28
2022-11-18T01:11:47.054Z,40.28
2022-11-18T01:12:51.482Z,41.73
2022-11-18T01:13:49.075Z,44.79
2022-11-18T01:14:47.033Z,39.96
2022-11-18T01:15:47.027Z,39.32
2022-11-18T01:16:47.029Z,44.15
2022-11-18T01:17:47.015Z,54.30
2022-11-18T01:18:47.032Z,54.95
2022-11-18T01:19:47.002Z,56.07
2022-11-18T01:20:46.996Z,55.75
2022-11-18T01:21:46.980Z,54.95
2022-11-18T01:22:46.968Z,54.62
2022-11-18T01:23:46.991Z,55.11
2022-11-18T01:24:46.948Z,55.11
2022-11-18T01:25:46.941Z,55.27
2022-11-18T01:26:46.947Z,55.27
2022-11-18T01:27:46.923Z,55.43
2022-11-18T01:28:46.957Z,55.27
2022-11-18T01:29:46.916Z,36.90
2022-11-18T01:30:46.904Z,38.83
2022-11-18T01:32:09.148Z,39.80
2022-11-18T01:32:48.897Z,38.99
2022-11-18T01:33:46.997Z,40.28
2022-11-18T01:34:46.876Z,44.79
2022-11-18T01:35:46.863Z,40.12
2022-11-18T01:36:46.858Z,42.38
2022-11-18T01:37:46.853Z,45.92
2022-11-18T01:38:46.881Z,39.96
2022-11-18T01:39:46.836Z,39.80
2022-11-18T01:40:46.826Z,43.02
2022-11-18T01:41:46.819Z,40.12
2022-11-18T01:42:46.808Z,39.64
2022-11-18T01:43:46.868Z,40.28
2022-11-18T01:44:46.792Z,42.70
2022-11-18T01:45:46.774Z,40.61
2022-11-18T01:46:47.776Z,39.80
2022-11-18T01:47:46.770Z,40.28
2022-11-18T01:48:46.806Z,40.93
2022-11-18T01:49:46.770Z,39.96
2022-11-18T01:50:46.768Z,42.22
2022-11-18T01:51:46.742Z,41.41
2022-11-18T01:52:51.437Z,42.54
2022-11-18T01:53:48.749Z,39.16
2022-11-18T01:54:46.722Z,39.48
2022-11-18T01:55:46.710Z,39.48
2022-11-18T01:56:46.708Z,39.80
2022-11-18T01:57:46.698Z,39.80
2022-11-18T01:58:46.690Z,39.80
2022-11-18T01:59:46.713Z,42.06
2022-11-18T02:00:46.672Z,41.25
2022-11-18T02:01:46.743Z,39.32
2022-11-18T02:02:46.655Z,38.99
2022-11-18T02:03:46.653Z,40.61
2022-11-18T02:04:46.668Z,39.80
2022-11-18T02:05:46.632Z,41.89
2022-11-18T02:06:46.623Z,42.54
2022-11-18T02:07:46.630Z,41.25
2022-11-18T02:08:46.606Z,40.77
2022-11-18T02:09:46.620Z,39.80
2022-11-18T02:10:46.595Z,38.99
2022-11-18T02:11:46.612Z,40.44
2022-11-18T02:12:46.613Z,40.28
2022-11-18T02:13:46.566Z,44.96
2022-11-18T02:14:46.600Z,42.22
2022-11-18T02:15:46.560Z,39.96
2022-11-18T02:16:46.547Z,44.15
2022-11-18T02:17:46.579Z,40.44
2022-11-18T02:18:46.553Z,39.96
2022-11-18T02:19:46.594Z,47.37
2022-11-18T02:20:46.516Z,41.25
2022-11-18T02:21:46.515Z,39.32
2022-11-18T02:22:46.509Z,41.89
2022-11-18T02:23:46.500Z,38.83
2022-11-18T02:24:46.538Z,39.80
2022-11-18T02:25:46.477Z,40.77
2022-11-18T02:26:46.471Z,41.09
2022-11-18T02:27:46.487Z,39.64
2022-11-18T02:28:46.463Z,39.48
2022-11-18T02:29:46.491Z,38.99
2022-11-18T02:30:46.449Z,39.16
2022-11-18T02:31:46.439Z,44.63
2022-11-18T02:32:46.432Z,38.67
2022-11-18T02:33:46.536Z,39.80
2022-11-18T02:34:46.444Z,39.96
2022-11-18T02:35:46.408Z,40.12
2022-11-18T02:36:46.396Z,38.19
2022-11-18T02:37:46.393Z,39.16
2022-11-18T02:38:46.382Z,39.96
2022-11-18T02:39:46.424Z,39.96
2022-11-18T02:40:46.371Z,40.77
2022-11-18T02:41:46.418Z,53.17
2022-11-18T02:42:46.355Z,55.27
2022-11-18T02:43:46.369Z,55.11
2022-11-18T02:44:46.372Z,54.95
2022-11-18T02:45:46.335Z,56.07
2022-11-18T02:46:46.324Z,55.59
2022-11-18T02:47:46.331Z,55.75
2022-11-18T02:48:46.316Z,55.75
2022-11-18T02:49:46.344Z,54.62
2022-11-18T02:50:46.336Z,55.59
2022-11-18T02:51:46.292Z,55.59
2022-11-18T02:52:46.279Z,56.07
2022-11-18T02:53:46.273Z,55.59
2022-11-18T02:54:46.275Z,38.03
2022-11-18T02:55:46.287Z,36.58
2022-11-18T02:56:46.266Z,38.83
2022-11-18T02:57:46.265Z,38.83
2022-11-18T02:58:46.240Z,38.83
2022-11-18T02:59:46.237Z,39.48
2022-11-18T03:00:46.246Z,39.64
2022-11-18T03:01:46.281Z,39.32
2022-11-18T03:02:46.206Z,39.96
2022-11-18T03:03:46.210Z,40.12
2022-11-18T03:04:46.203Z,40.44
2022-11-18T03:05:46.224Z,39.48
2022-11-18T03:06:46.183Z,39.16
2022-11-18T03:07:46.174Z,39.80
2022-11-18T03:08:46.173Z,39.32
2022-11-18T03:09:46.156Z,40.12
2022-11-18T03:10:46.189Z,39.64
2022-11-18T03:11:46.152Z,40.61
2022-11-18T03:12:46.132Z,40.12
2022-11-18T03:13:46.142Z,40.93
2022-11-18T03:14:46.110Z,40.93
2022-11-18T03:15:46.141Z,40.61
2022-11-18T03:16:46.100Z,40.61
2022-11-18T03:17:46.095Z,40.12
2022-11-18T03:18:46.095Z,41.09
2022-11-18T03:19:46.081Z,42.22
2022-11-18T03:20:46.104Z,41.57
2022-11-18T03:21:46.066Z,42.06
2022-11-18T03:22:46.061Z,45.44
2022-11-18T03:23:46.078Z,40.93
2022-11-18T03:24:46.038Z,40.93
2022-11-18T03:25:46.059Z,41.41
2022-11-18T03:26:46.049Z,41.57
2022-11-18T03:27:46.015Z,39.96
2022-11-18T03:28:46.010Z,39.96
2022-11-18T03:29:46.012Z,40.12
2022-11-18T03:30:46.014Z,42.54
2022-11-18T03:31:45.985Z,43.51
2022-11-18T03:32:45.983Z,40.44
2022-11-18T03:33:45.969Z,39.80
2022-11-18T03:34:45.960Z,39.96
2022-11-18T03:35:45.980Z,39.96
2022-11-18T03:36:49.999Z,42.86
2022-11-18T03:37:47.939Z,45.76
2022-11-18T03:38:45.932Z,48.66
2022-11-18T03:39:45.934Z,40.77
2022-11-18T03:40:45.943Z,44.15
2022-11-18T03:41:45.914Z,45.92
2022-11-18T03:42:45.904Z,39.32
2022-11-18T03:43:45.911Z,39.80
2022-11-18T03:44:49.687Z,40.77
2022-11-18T03:45:47.913Z,41.41
2022-11-18T03:46:45.880Z,45.12
2022-11-18T03:47:45.864Z,40.61
2022-11-18T03:48:45.860Z,40.93
2022-11-18T03:49:45.845Z,40.61
2022-11-18T03:50:45.868Z,42.54
2022-11-18T03:51:45.841Z,41.25
2022-11-18T03:52:45.824Z,39.16
2022-11-18T03:53:45.832Z,39.96
2022-11-18T03:54:45.816Z,43.18
2022-11-18T03:55:45.843Z,40.61
2022-11-18T03:56:45.803Z,40.44
2022-11-18T03:57:45.794Z,39.64
2022-11-18T03:58:45.785Z,43.02
2022-11-18T03:59:45.776Z,39.96
2022-11-18T04:00:45.790Z,39.64
2022-11-18T04:01:45.886Z,42.06
2022-11-18T04:02:45.745Z,40.93
2022-11-18T04:03:45.752Z,41.73
2022-11-18T04:04:45.741Z,41.57
2022-11-18T04:05:45.749Z,41.09
2022-11-18T04:06:45.728Z,43.51
2022-11-18T04:07:45.786Z,43.02
2022-11-18T04:08:45.711Z,47.70
2022-11-18T04:09:45.704Z,49.79
2022-11-18T04:10:45.719Z,47.70
2022-11-18T04:11:45.690Z,42.06
2022-11-18T04:12:45.689Z,42.06
2022-11-18T04:13:45.667Z,46.57
2022-11-18T04:14:45.666Z,45.60
2022-11-18T04:15:45.681Z,42.22
2022-11-18T04:16:45.649Z,41.41
2022-11-18T04:17:45.682Z,39.80
2022-11-18T04:18:45.650Z,42.54
2022-11-18T04:19:45.619Z,42.06
2022-11-18T04:20:45.644Z,42.54
2022-11-18T04:21:45.617Z,41.73
2022-11-18T04:22:45.594Z,45.28
2022-11-18T04:23:45.588Z,43.34
2022-11-18T04:24:45.580Z,47.86
2022-11-18T04:25:45.574Z,49.79
2022-11-18T04:26:45.591Z,48.34
2022-11-18T04:27:45.561Z,44.31
2022-11-18T04:28:45.576Z,40.44
2022-11-18T04:29:45.604Z,49.79
2022-11-18T04:30:45.544Z,54.14
2022-11-18T04:31:45.551Z,55.75
2022-11-18T04:32:45.525Z,55.43
2022-11-18T04:33:45.522Z,55.43
2022-11-18T04:34:45.494Z,56.56
2022-11-18T04:35:46.506Z,56.88
2022-11-18T04:36:45.514Z,55.11
2022-11-18T04:37:45.482Z,56.88
2022-11-18T04:38:45.497Z,56.24
2022-11-18T04:39:45.480Z,55.91
2022-11-18T04:40:45.455Z,55.27
2022-11-18T04:41:45.488Z,55.11
2022-11-18T04:42:45.453Z,56.24
2022-11-18T04:43:45.437Z,55.75
2022-11-18T04:44:45.426Z,56.07
2022-11-18T04:45:45.425Z,44.15
2022-11-18T04:46:45.438Z,53.33
2022-11-18T04:47:45.407Z,42.70
2022-11-18T04:48:45.397Z,43.34
2022-11-18T04:49:45.398Z,42.06
2022-11-18T04:50:45.388Z,48.34
2022-11-18T04:51:45.413Z,50.76
2022-11-18T04:52:45.383Z,41.25
2022-11-18T04:53:45.362Z,47.53
2022-11-18T04:54:45.361Z,41.09
2022-11-18T04:55:45.346Z,40.77
2022-11-18T04:56:48.984Z,44.79
2022-11-18T04:57:46.330Z,49.79
2022-11-18T04:58:45.327Z,43.02
2022-11-18T04:59:45.318Z,42.06
2022-11-18T05:00:45.309Z,40.44
2022-11-18T05:01:45.376Z,47.21
2022-11-18T05:02:45.293Z,43.18
2022-11-18T05:03:50.375Z,43.99
2022-11-18T05:04:47.285Z,50.27
2022-11-18T05:05:45.271Z,41.73
2022-11-18T05:06:45.294Z,42.38
2022-11-18T05:07:45.325Z,46.41
2022-11-18T05:08:45.251Z,41.57
2022-11-18T05:09:45.242Z,40.44
2022-11-18T05:10:45.242Z,42.86
2022-11-18T05:11:45.263Z,42.54
2022-11-18T05:12:45.217Z,49.63
2022-11-18T05:13:45.209Z,48.98
2022-11-18T05:14:49.594Z,48.02
2022-11-18T05:15:47.191Z,47.70
2022-11-18T05:16:45.208Z,52.21
2022-11-18T05:17:45.173Z,44.63
2022-11-18T05:18:45.169Z,47.05
2022-11-18T05:19:45.163Z,48.18
2022-11-18T05:20:45.176Z,43.34
2022-11-18T05:21:45.174Z,42.06
2022-11-18T05:22:45.172Z,43.34
2022-11-18T05:23:45.130Z,48.98
2022-11-18T05:24:45.126Z,42.54
2022-11-18T05:25:45.116Z,50.92
2022-11-18T05:26:45.132Z,51.08
2022-11-18T05:27:45.098Z,49.79
2022-11-18T05:28:45.097Z,46.41
2022-11-18T05:29:45.089Z,52.05
2022-11-18T05:30:45.082Z,51.40
2022-11-18T05:31:45.129Z,48.50
2022-11-18T05:32:45.064Z,52.21
2022-11-18T05:33:45.067Z,51.08
2022-11-18T05:34:45.048Z,45.60
2022-11-18T05:35:45.044Z,42.86
2022-11-18T05:36:45.037Z,48.34
2022-11-18T05:37:45.051Z,49.63
2022-11-18T05:38:45.029Z,51.40
2022-11-18T05:39:45.013Z,50.43
2022-11-18T05:40:45.025Z,48.18
2022-11-18T05:41:44.994Z,53.66
2022-11-18T05:42:45.014Z,42.38
2022-11-18T05:43:44.976Z,45.60
2022-11-18T05:44:44.986Z,49.15
2022-11-18T05:45:44.965Z,48.02
2022-11-18T05:46:44.959Z,52.37
2022-11-18T05:47:44.976Z,52.53
2022-11-18T05:48:44.945Z,49.79
2022-11-18T05:49:45.004Z,51.72
2022-11-18T05:50:44.934Z,50.43
2022-11-18T05:51:44.921Z,48.34
2022-11-18T05:52:44.944Z,47.86
2022-11-18T05:53:44.904Z,53.01
2022-11-18T05:54:44.911Z,52.05
2022-11-18T05:55:44.891Z,47.70
2022-11-18T05:56:44.881Z,47.37
2022-11-18T05:57:44.904Z,48.18
2022-11-18T05:58:44.879Z,48.02
2022-11-18T05:59:44.856Z,54.79
2022-11-18T06:00:44.865Z,51.40
2022-11-18T06:01:44.851Z,45.28
2022-11-18T06:02:44.891Z,54.79
2022-11-18T06:03:44.834Z,48.18
2022-11-18T06:04:44.849Z,46.73
2022-11-18T06:05:44.816Z,55.75
2022-11-18T06:06:44.809Z,54.46
2022-11-18T06:07:44.914Z,54.95
2022-11-18T06:08:44.789Z,52.69
2022-11-18T06:09:44.785Z,49.95
2022-11-18T06:10:44.774Z,47.70
2022-11-18T06:11:44.772Z,49.63
2022-11-18T06:12:44.788Z,47.05
2022-11-18T06:13:44.751Z,52.69
2022-11-18T06:14:44.745Z,52.69
2022-11-18T06:15:44.733Z,53.01
2022-11-18T06:16:44.744Z,52.37
2022-11-18T06:17:44.744Z,53.66
2022-11-18T06:18:44.711Z,52.05
2022-11-18T06:19:44.698Z,50.60
2022-11-18T06:21:17.254Z,49.31
2022-11-18T06:21:44.685Z,58.17
2022-11-18T06:22:46.649Z,56.56
2022-11-18T06:23:45.672Z,56.56
2022-11-18T06:24:44.665Z,56.24
2022-11-18T06:25:44.652Z,57.20
2022-11-18T06:26:44.653Z,56.07
2022-11-18T06:27:44.662Z,56.40
2022-11-18T06:28:44.634Z,56.07
2022-11-18T06:29:44.693Z,56.24
2022-11-18T06:30:44.626Z,55.91
2022-11-18T06:31:44.622Z,56.72
2022-11-18T06:32:44.799Z,56.40
2022-11-18T06:33:44.594Z,56.72
2022-11-18T06:34:44.591Z,56.24
2022-11-18T06:35:44.584Z,51.88
2022-11-18T06:36:44.566Z,53.01
2022-11-18T06:37:44.582Z,52.21
2022-11-18T06:38:44.571Z,51.72
2022-11-18T06:39:44.551Z,48.02
2022-11-18T06:40:44.597Z,50.43
2022-11-18T06:41:44.536Z,48.82
2022-11-18T06:42:44.568Z,55.11
2022-11-18T06:43:44.530Z,52.85
2022-11-18T06:44:44.595Z,52.37
2022-11-18T06:45:44.513Z,52.69
2022-11-18T06:46:44.493Z,54.79
2022-11-18T06:47:44.917Z,46.41
2022-11-18T06:48:44.518Z,44.79
2022-11-18T06:49:44.469Z,51.08
2022-11-18T06:50:44.471Z,50.92
2022-11-18T06:51:44.466Z,54.14
2022-11-18T06:52:44.476Z,53.01
2022-11-18T06:53:44.436Z,47.86
2022-11-18T06:54:44.442Z,56.40
2022-11-18T06:55:44.526Z,44.47
2022-11-18T06:56:44.424Z,48.50
2022-11-18T06:57:44.679Z,47.86
2022-11-18T06:58:44.432Z,50.27
2022-11-18T06:59:44.401Z,46.25
2022-11-18T07:00:44.433Z,48.98
2022-11-18T07:01:44.384Z,49.31
2022-11-18T07:02:44.439Z,51.40
2022-11-18T07:03:44.418Z,45.76
2022-11-18T07:04:44.352Z,53.17
2022-11-18T07:05:44.347Z,48.02
2022-11-18T07:06:44.339Z,50.43
2022-11-18T07:07:44.429Z,51.40
2022-11-18T07:08:44.338Z,48.66
2022-11-18T07:09:44.316Z,41.09
2022-11-18T07:10:44.306Z,41.89
2022-11-18T07:11:44.294Z,54.46
2022-11-18T07:12:44.320Z,48.02
2022-11-18T07:13:44.281Z,44.47
2022-11-18T07:14:44.280Z,45.44
2022-11-18T07:15:44.276Z,46.89
2022-11-18T07:16:44.265Z,53.50
2022-11-18T07:17:44.247Z,52.05
2022-11-18T07:18:44.272Z,51.24
2022-11-18T07:19:44.242Z,45.60
2022-11-18T07:20:44.226Z,42.22
2022-11-18T07:21:44.236Z,47.05
2022-11-18T07:22:44.203Z,46.08
2022-11-18T07:23:44.257Z,42.38
2022-11-18T07:24:44.199Z,48.82
2022-11-18T07:25:45.405Z,51.40
2022-11-18T07:26:45.251Z,49.15
2022-11-18T07:27:44.170Z,53.01
2022-11-18T07:28:44.183Z,49.79
2022-11-18T07:29:44.169Z,45.92
2022-11-18T07:30:44.148Z,45.12
2022-11-18T07:31:44.137Z,52.85
2022-11-18T07:32:44.134Z,44.47
2022-11-18T07:33:44.144Z,45.76
2022-11-18T07:34:44.118Z,48.82
2022-11-18T07:35:44.113Z,43.02
2022-11-18T07:36:44.129Z,49.95
2022-11-18T07:37:44.101Z,46.41
2022-11-18T07:38:44.130Z,47.86
2022-11-18T07:39:44.120Z,48.18
2022-11-18T07:40:44.077Z,53.17
2022-11-18T07:41:44.065Z,50.92
2022-11-18T07:42:44.059Z,43.51
2022-11-18T07:43:44.078Z,43.83
2022-11-18T07:44:44.038Z,53.82
2022-11-18T07:45:44.033Z,43.34
2022-11-18T07:46:44.026Z,47.86
2022-11-18T07:47:44.018Z,53.01
2022-11-18T07:48:44.038Z,48.98
2022-11-18T07:49:44.003Z,44.63
2022-11-18T07:50:47.159Z,51.24
2022-11-18T07:51:45.023Z,48.50
2022-11-18T07:52:43.981Z,50.76
2022-11-18T07:53:44.001Z,49.95
2022-11-18T07:54:43.977Z,45.28
2022-11-18T07:55:43.962Z,46.25
2022-11-18T07:56:43.950Z,52.53
2022-11-18T07:57:43.946Z,50.92
2022-11-18T07:58:43.966Z,44.15
2022-11-18T07:59:43.935Z,51.72
2022-11-18T08:00:43.920Z,54.30
2022-11-18T08:01:44.002Z,47.70
2022-11-18T08:02:43.908Z,44.96
2022-11-18T08:03:43.948Z,48.50
2022-11-18T08:04:44.019Z,51.72
2022-11-18T08:05:43.874Z,49.15
2022-11-18T08:06:43.887Z,47.86
2022-11-18T08:07:43.885Z,48.98
2022-11-18T08:08:43.912Z,48.50
2022-11-18T08:09:43.879Z,49.95
2022-11-18T08:10:43.845Z,53.50
2022-11-18T08:11:44.773Z,45.92
2022-11-18T08:12:43.825Z,45.92
2022-11-18T08:13:43.845Z,46.89
2022-11-18T08:14:43.816Z,48.82
2022-11-18T08:15:43.819Z,44.63
2022-11-18T08:16:43.800Z,52.21
2022-11-18T08:17:43.792Z,46.41
2022-11-18T08:18:43.781Z,50.60
2022-11-18T08:19:43.800Z,53.01
2022-11-18T08:20:43.774Z,48.82
2022-11-18T08:21:43.769Z,47.70
2022-11-18T08:22:43.770Z,45.76
2022-11-18T08:23:43.758Z,53.01
2022-11-18T08:24:43.783Z,43.34
2022-11-18T08:25:43.730Z,52.05
2022-11-18T08:26:43.732Z,52.37
2022-11-18T08:27:43.720Z,53.01
2022-11-18T08:28:43.814Z,51.08
2022-11-18T08:29:43.728Z,44.96
2022-11-18T08:30:43.696Z,50.76
2022-11-18T08:31:43.707Z,50.76
2022-11-18T08:32:43.688Z,51.40
2022-11-18T08:33:43.670Z,45.76
2022-11-18T08:34:43.700Z,44.63
2022-11-18T08:35:43.666Z,54.62
2022-11-18T08:36:43.659Z,52.37
2022-11-18T08:37:43.650Z,53.17
2022-11-18T08:38:43.641Z,52.69
2022-11-18T08:39:43.659Z,49.31
2022-11-18T08:40:43.618Z,50.43
2022-11-18T08:41:43.615Z,52.53
2022-11-18T08:42:43.601Z,48.02
2022-11-18T08:43:43.599Z,50.27
2022-11-18T08:44:43.609Z,50.60
2022-11-18T08:45:43.588Z,54.95
2022-11-18T08:46:43.590Z,51.88
2022-11-18T08:47:43.568Z,51.24
2022-11-18T08:48:43.553Z,53.33
2022-11-18T08:49:43.579Z,49.15
2022-11-18T08:50:43.544Z,53.33
2022-11-18T08:51:43.558Z,47.86
2022-11-18T08:52:43.527Z,50.27
2022-11-18T08:53:43.521Z,55.11
2022-11-18T08:54:43.564Z,54.14
2022-11-18T08:55:43.497Z,48.82
2022-11-18T08:56:43.499Z,54.14
2022-11-18T08:57:43.491Z,51.88
2022-11-18T08:58:43.469Z,49.79
2022-11-18T08:59:44.502Z,51.08
2022-11-18T09:00:43.483Z,47.05
2022-11-18T09:01:43.525Z,51.40
2022-11-18T09:02:44.315Z,51.56
2022-11-18T09:03:43.444Z,53.82
2022-11-18T09:04:43.469Z,50.43
2022-11-18T09:05:43.442Z,51.24
2022-11-18T09:06:43.421Z,45.60
2022-11-18T09:07:43.461Z,54.79
2022-11-18T09:08:43.402Z,46.57
2022-11-18T09:09:43.437Z,50.27
2022-11-18T09:10:43.391Z,49.79
2022-11-18T09:11:43.390Z,52.05
2022-11-18T09:12:43.374Z,43.67
2022-11-18T09:15:15.404Z,53.82
2022-11-18T09:15:45.370Z,53.66
2022-11-18T09:16:43.345Z,46.25
2022-11-18T09:17:43.335Z,45.28
2022-11-18T09:18:43.337Z,51.40
2022-11-18T09:19:48.101Z,51.40
2022-11-18T09:20:45.318Z,44.96
2022-11-18T09:21:43.368Z,47.21
2022-11-18T09:22:43.316Z,53.33
2022-11-18T09:23:43.334Z,51.72
2022-11-18T09:24:43.315Z,53.50
2022-11-18T09:25:43.388Z,52.37
2022-11-18T09:26:43.281Z,50.11
2022-11-18T09:27:43.263Z,49.31
2022-11-18T09:28:43.265Z,56.24
2022-11-18T09:29:43.271Z,51.56
2022-11-18T09:30:43.268Z,47.21
2022-11-18T09:31:43.231Z,48.98
2022-11-18T09:32:43.229Z,52.37
2022-11-18T09:33:43.250Z,50.43
2022-11-18T09:34:43.223Z,49.63
2022-11-18T09:35:43.251Z,48.66
2022-11-18T09:36:43.205Z,54.95
2022-11-18T09:37:43.179Z,51.88
2022-11-18T09:38:43.176Z,51.72
2022-11-18T09:39:43.180Z,52.37
2022-11-18T09:40:43.196Z,52.53
2022-11-18T09:41:43.164Z,52.05
2022-11-18T09:42:43.155Z,52.05
2022-11-18T09:43:43.152Z,47.86
2022-11-18T09:44:43.135Z,47.70
2022-11-18T09:45:43.177Z,55.43
2022-11-18T09:46:43.169Z,52.21
2022-11-18T09:47:43.122Z,54.46
2022-11-18T09:48:43.103Z,51.56
2022-11-18T09:49:43.097Z,51.08
2022-11-18T09:50:49.575Z,54.79
2022-11-18T09:51:45.092Z,54.95
2022-11-18T09:52:43.308Z,53.82
2022-11-18T09:53:43.068Z,51.88
2022-11-18T09:54:43.063Z,51.72
2022-11-18T09:55:43.081Z,48.82
2022-11-18T09:56:43.099Z,50.76
2022-11-18T09:57:43.044Z,45.60
2022-11-18T09:58:43.026Z,45.28
2022-11-18T09:59:43.021Z,55.59
2022-11-18T10:00:43.036Z,47.37
2022-11-18T10:01:43.161Z,53.98
2022-11-18T10:02:43.025Z,54.46
2022-11-18T10:03:43.007Z,48.34
2022-11-18T10:04:42.981Z,46.89
2022-11-18T10:05:43.006Z,44.47
2022-11-18T10:06:42.964Z,51.24
2022-11-18T10:07:43.001Z,53.01
2022-11-18T10:08:42.957Z,52.53
2022-11-18T10:09:42.933Z,54.46
2022-11-18T10:10:42.956Z,56.07
2022-11-18T10:11:47.574Z,54.46
2022-11-18T10:12:44.918Z,52.53
2022-11-18T10:13:42.913Z,54.30
2022-11-18T10:14:42.901Z,51.72
2022-11-18T10:15:42.924Z,55.91
2022-11-18T10:16:42.976Z,52.85
2022-11-18T10:17:42.877Z,51.72
2022-11-18T10:18:59.682Z,47.05
2022-11-18T10:19:44.859Z,53.33
2022-11-18T10:20:42.887Z,57.20
2022-11-18T10:21:42.858Z,49.31
2022-11-18T10:22:42.836Z,54.46
2022-11-18T10:23:42.838Z,50.43
2022-11-18T10:24:43.438Z,53.82
2022-11-18T10:25:42.868Z,57.69
2022-11-18T10:26:42.811Z,48.98
2022-11-18T10:27:42.801Z,49.47
2022-11-18T10:28:42.813Z,55.43
2022-11-18T10:29:42.796Z,52.37
2022-11-18T10:30:42.876Z,47.21
2022-11-18T10:31:42.771Z,49.47
2022-11-18T10:32:42.771Z,55.27
2022-11-18T10:33:42.763Z,56.40
2022-11-18T10:34:42.752Z,53.66
2022-11-18T10:35:42.766Z,49.79
2022-11-18T10:36:42.736Z,51.40
2022-11-18T10:38:06.847Z,56.07
2022-11-18T10:38:49.776Z,54.79
2022-11-18T10:39:44.721Z,51.72
2022-11-18T10:40:42.724Z,55.11
2022-11-18T10:41:42.698Z,54.79
2022-11-18T10:42:42.693Z,52.21
2022-11-18T10:43:42.672Z,57.20
2022-11-18T10:44:43.680Z,57.04
2022-11-18T10:45:42.690Z,56.56
2022-11-18T10:46:42.653Z,57.20
2022-11-18T10:47:42.645Z,52.85
2022-11-18T10:48:42.640Z,56.24
2022-11-18T10:49:42.638Z,57.52
2022-11-18T10:50:42.646Z,58.49
2022-11-18T10:51:42.630Z,57.85
2022-11-18T10:52:42.615Z,58.17
2022-11-18T10:53:42.635Z,57.20
2022-11-18T10:54:42.630Z,58.17
2022-11-18T10:55:42.620Z,56.40
2022-11-18T10:56:42.580Z,56.88
2022-11-18T10:57:42.572Z,57.85
2022-11-18T10:58:42.566Z,58.97
2022-11-18T10:59:42.579Z,57.20
2022-11-18T11:00:42.583Z,58.17
2022-11-18T11:01:42.654Z,59.30
2022-11-18T11:02:42.559Z,58.49
2022-11-18T11:03:42.527Z,58.33
2022-11-18T11:04:42.548Z,56.72
2022-11-18T11:05:42.560Z,56.72
2022-11-18T11:06:42.533Z,54.79
2022-11-18T11:07:42.635Z,56.40
2022-11-18T11:08:42.492Z,53.01
2022-11-18T11:09:42.476Z,56.40
2022-11-18T11:10:42.498Z,51.88
2022-11-18T11:11:42.472Z,55.11
2022-11-18T11:12:42.562Z,53.82
2022-11-18T11:13:42.464Z,52.21
2022-11-18T11:14:42.434Z,53.66
2022-11-18T11:15:42.439Z,54.30
2022-11-18T11:16:42.452Z,51.40
2022-11-18T11:17:42.479Z,54.62
2022-11-18T11:18:42.416Z,56.40
2022-11-18T11:19:42.404Z,56.24
2022-11-18T11:20:42.396Z,54.46
2022-11-18T11:21:42.416Z,50.27
2022-11-18T11:22:42.389Z,57.04
2022-11-18T11:23:42.375Z,59.14
2022-11-18T11:24:42.459Z,50.92
2022-11-18T11:28:44.338Z,57.85
2022-11-18T11:29:42.345Z,53.33
2022-11-18T11:30:43.752Z,57.69
2022-11-18T11:31:42.332Z,57.52
2022-11-18T11:32:42.320Z,54.46
2022-11-18T11:33:42.297Z,56.88
2022-11-18T11:34:42.291Z,57.36
2022-11-18T11:35:42.306Z,57.20
2022-11-18T11:36:42.313Z,53.01
2022-11-18T11:37:42.267Z,58.65
2022-11-18T11:38:42.263Z,57.69
2022-11-18T11:39:42.273Z,56.72
2022-11-18T11:40:42.243Z,56.24
2022-11-18T11:41:42.273Z,59.14
2022-11-18T11:42:42.236Z,57.85
2022-11-18T11:43:42.229Z,58.97
2022-11-18T11:44:42.318Z,58.81
2022-11-18T11:45:42.207Z,55.27
2022-11-18T11:46:42.225Z,55.43
2022-11-18T11:47:42.223Z,56.24
2022-11-18T11:48:42.189Z,54.30
2022-11-18T11:49:42.187Z,52.69
2022-11-18T11:50:42.177Z,57.52
2022-11-18T11:51:42.208Z,57.85
2022-11-18T11:52:42.207Z,55.27
2022-11-18T11:53:42.151Z,57.20
2022-11-18T11:54:42.144Z,56.56
2022-11-18T11:55:42.138Z,58.17
2022-11-18T11:56:42.126Z,54.62
2022-11-18T11:57:42.156Z,54.46
2022-11-18T11:58:42.110Z,52.85
2022-11-18T11:59:42.106Z,50.76
2022-11-18T12:00:42.100Z,52.37
2022-11-18T12:01:42.084Z,58.33
2022-11-18T12:02:42.181Z,57.36
2022-11-18T12:03:44.891Z,54.79
2022-11-18T12:04:43.069Z,57.69
2022-11-18T12:05:42.052Z,59.14
2022-11-18T12:06:42.053Z,58.17
2022-11-18T12:07:42.108Z,58.81
2022-11-18T12:08:42.032Z,57.69
2022-11-18T12:09:42.036Z,58.17
2022-11-18T12:10:42.042Z,57.85
2022-11-18T12:11:42.021Z,56.88
2022-11-18T12:12:42.040Z,57.36
2022-11-18T12:13:42.005Z,53.66
2022-11-18T12:14:41.997Z,53.50
2022-11-18T12:15:42.012Z,58.17
2022-11-18T12:16:42.011Z,53.98
2022-11-18T12:17:42.016Z,58.81
2022-11-18T12:18:41.960Z,57.85
2022-11-18T12:19:41.955Z,56.24
2022-11-18T12:21:14.352Z,57.52
2022-11-18T12:21:41.977Z,59.14
2022-11-18T12:22:41.962Z,59.94
2022-11-18T12:23:41.920Z,60.42
2022-11-18T12:24:41.957Z,58.81
2022-11-18T12:25:41.905Z,59.30
2022-11-18T12:26:41.900Z,58.65
2022-11-18T12:27:41.912Z,59.94
2022-11-18T12:28:41.910Z,59.62
2022-11-18T12:29:41.874Z,60.59
2022-11-18T12:30:41.869Z,58.49
2022-11-18T12:31:41.879Z,59.46
2022-11-18T12:32:41.908Z,58.49
2022-11-18T12:33:41.881Z,57.20
2022-11-18T12:34:41.844Z,57.20
2022-11-18T12:35:41.856Z,58.17
2022-11-18T12:36:41.818Z,58.65
2022-11-18T12:37:41.840Z,54.46
2022-11-18T12:38:41.805Z,53.82
2022-11-18T12:39:41.798Z,57.04
2022-11-18T12:40:42.508Z,57.85
2022-11-18T12:41:41.793Z,57.85
2022-11-18T12:42:41.869Z,57.69
2022-11-18T12:43:41.790Z,57.36
2022-11-18T12:44:41.761Z,58.33
2022-11-18T12:45:41.760Z,52.69
2022-11-18T12:46:45.648Z,58.65
2022-11-18T12:47:42.877Z,57.69
2022-11-18T12:48:41.766Z,57.69
2022-11-18T12:49:41.732Z,56.07
2022-11-18T12:50:41.729Z,55.43
2022-11-18T12:51:41.702Z,57.20
2022-11-18T12:52:41.695Z,56.24
2022-11-18T12:53:41.717Z,56.72
2022-11-18T12:54:41.686Z,56.56
2022-11-18T12:55:41.721Z,59.78
2022-11-18T12:56:41.663Z,55.11